Acra, New York
Current Conditions -  °F | °C
As of 4:51 PM on Friday 28 Nov 2014 (Local Time) from KALB Reporting Station
Few Clouds Few Clouds  
Wind Chill: 16°   Ceiling: Unl
Heat Index: 26°   Visibility: 10mi
Dew Point: 14°   Wind: 12mph
Humidity: 60%   Direction: 290°WNW
Pressure: 30.19"   Gusts: NA
Location:  42.31°N, 74.05°W
Report Text: KALB 282151Z 29010KT 10SM FEW040 FEW060 M03/M10 A3019 RMK AO2 SLP226 T10331100
Loading
Personal Weather Stations






























Interactive Weather Map New forecast layout! Learn more

10-Day Weather Forecast

Advertisements
Track Severe Weather on mobile